Sanko Independence — A8QJ9 — position and weather

sailwx.info

Track history (hours):
 
Tides and Currents Weather Stations Pressure Air Temp Water Temp Dewpoint Dewpoint Depression Visibility Wind Speed Wind Dir Waves Ship Positions

Sanko Independence

Last reported at 2014-Jul-23 18:33 UTC. Time now 2014-Jul-25 18:21 UTC.
Position N 49°55' W 003°37'.

Length 174 m; draft 10.5 m.

Type: Ship (hazmat cat C). MMSI: 636013946.

Date/timePositionNaut miles runAvg speedWind from/ knotsBaromVisibWave heightAir tempDewpointWater temp
2014-Jul-23 18:33N 49°55' W 003°37'9511.9
2014-Jul-23 10:31N 50°26' W 001°16'1715.9
2014-Jul-23 09:27N 50°27' W 000°50'1314.6
2014-Jul-23 08:33N 50°27' W 000°29'1413.9
2014-Jul-23 07:32N 50°30' W 000°07'1313.3
2014-Jul-23 06:32N 50°33' E 000°13'1313.2
2014-Jul-23 05:33N 50°37' E 000°33'1414.1
2014-Jul-23 04:33N 50°44' E 000°52'1815.3
2014-Jul-23 03:24N 50°54' E 001°15'1316.1
2014-Jul-23 02:33N 51°03' E 001°31'1515.2
2014-Jul-23 01:33N 51°15' E 001°47'1413.8
2014-Jul-23 00:33N 51°27' E 001°58'1313.2
2014-Jul-22 23:33N 51°37' E 002°10'1313.0
2014-Jul-22 22:31N 51°48' E 002°24'1212.7
2014-Jul-22 21:33N 51°58' E 002°34'1413.9
2014-Jul-22 20:33N 52°12' E 002°40'1514.9
2014-Jul-22 19:34N 52°25' E 002°50'1515.4
2014-Jul-22 18:34N 52°39' E 003°01'1615.6
2014-Jul-22 17:34N 52°53' E 003°13'1515.3
2014-Jul-22 16:34N 53°07' E 003°22'1514.7
2014-Jul-22 15:34N 53°21' E 003°30'1414.1
2014-Jul-22 14:33N 53°34' E 003°37'1313.2
2014-Jul-22 13:33N 53°46' E 003°48'1414.0
2014-Jul-22 12:33N 53°54' E 004°07'1413.6
2014-Jul-22 11:33N 54°06' E 004°20'1414.3
2014-Jul-22 10:33N 54°18' E 004°33'1414.4
2014-Jul-22 09:33N 54°30' E 004°47'25413.9
2014-Jul-21 15:16N 57°45' E 009°38'1014.1
2014-Jul-21 14:33N 57°50' E 009°55'1414.1
2014-Jul-21 13:33N 57°51' E 010°21'1413.6
2014-Jul-21 12:34N 57°48' E 010°46'1211.9
2014-Jul-21 11:33N 57°40' E 011°02'1413.9
2014-Jul-21 10:33N 57°30' E 011°21'1414.0
2014-Jul-21 09:33N 57°18' E 011°34'1514.5
2014-Jul-21 08:33N 57°04' E 011°42'1414.5
2014-Jul-21 07:33N 56°50' E 011°51'1312.9
2014-Jul-21 06:32N 56°37' E 011°46'1413.5
2014-Jul-21 05:32N 56°26' E 011°33'1413.5
2014-Jul-21 04:31N 56°14' E 011°21'1313.6
2014-Jul-21 03:34N 56°03' E 011°07'1414.3
2014-Jul-21 02:34N 55°52' E 010°52'1614.5
2014-Jul-21 01:29N 55°36' E 010°49'1415.0
2014-Jul-21 00:33N 55°24' E 011°01'1413.8
2014-Jul-20 23:33N 55°10' E 011°04'1413.8
2014-Jul-20 22:34N 54°57' E 010°55'1514.6
2014-Jul-20 21:34N 54°43' E 010°50'1413.5
2014-Jul-20 20:34N 54°36' E 011°10'1515.3
2014-Jul-20 19:34N 54°29' E 011°33'1514.8
2014-Jul-20 18:34N 54°26' E 011°58'1312.6
2014-Jul-20 17:34N 54°34' E 012°15'1414.2
2014-Jul-20 16:34N 54°43' E 012°34'1414.1
2014-Jul-20 15:34N 54°50' E 012°56'1414.2
2014-Jul-20 14:34N 54°54' E 013°19'1414.3
2014-Jul-20 13:34N 54°60' E 013°42'1414.2
2014-Jul-20 12:34N 55°04' E 014°05'1413.9
2014-Jul-20 11:33N 55°12' E 014°26'1413.8
2014-Jul-20 10:33N 55°20' E 014°45'1111.0
2014-Jul-20 09:33N 55°26' E 015°02'1414.3
2014-Jul-20 08:33N 55°35' E 015°22'1414.4
2014-Jul-20 07:33N 55°43' E 015°42'1414.5
2014-Jul-20 06:33N 55°52' E 016°03'1414.4
2014-Jul-20 05:33N 56°00' E 016°24'1414.4
2014-Jul-20 04:33N 56°09' E 016°45'1414.2
2014-Jul-20 03:33N 56°18' E 017°05'1414.0
2014-Jul-20 02:33N 56°26' E 017°25'1413.9
2014-Jul-20 01:33N 56°35' E 017°44'1414.1
2014-Jul-20 00:33N 56°43' E 018°05'1414.0
2014-Jul-19 23:33N 56°52' E 018°25'1414.2
2014-Jul-19 22:33N 56°57' E 018°50'1414.2
2014-Jul-19 21:33N 57°02' E 019°14'1414.1
2014-Jul-19 20:33N 57°07' E 019°38'1414.2
2014-Jul-19 19:33N 57°12' E 020°03'1914.3
2014-Jul-19 18:16N 57°18' E 020°35'1014.3
2014-Jul-19 17:33N 57°21' E 020°53'1414.3
2014-Jul-19 16:33N 57°26' E 021°18'8 7.8
2014-Jul-19 15:33N 57°24' E 021°32'0 0.0
2014-Jul-19 13:07N 57°24' E 021°32'0 0.0
2014-Jul-19 12:31N 57°24' E 021°32'0 0.0
2014-Jul-19 05:28N 57°24' E 021°32'0 0.0
2014-Jul-19 00:22N 57°24' E 021°32'0 0.0
2014-Jul-18 23:28N 57°24' E 021°32'5 0.3
2014-Jul-18 05:32N 57°26' E 021°24'7013.1
2014-Jul-18 00:11N 57°00' E 019°23'1016.6
2014-Jul-17 23:33N 56°57' E 019°06'1716.5
2014-Jul-17 22:32N 56°51' E 018°37'3316.6
2014-Jul-17 20:33N 56°30' E 017°50'2516.8
2014-Jul-17 19:03N 56°15' E 017°14'1516.6
2014-Jul-17 18:09N 56°06' E 016°53'1016.4
2014-Jul-17 17:34N 55°60' E 016°39'1716.5
2014-Jul-17 16:34N 55°52' E 016°13'1716.6
2014-Jul-17 15:33N 55°44' E 015°47'1716.6
2014-Jul-17 14:33N 55°36' E 015°21'1616.2
2014-Jul-17 13:33N 55°26' E 014°59'1413.6
2014-Jul-17 12:33N 55°17' E 014°41'1616.4
2014-Jul-17 11:33N 55°06' E 014°19'1616.5
2014-Jul-17 10:33N 54°58' E 013°54'1716.6
2014-Jul-17 09:33N 54°53' E 013°27'1716.6
2014-Jul-17 08:33N 54°46' E 013°00'1616.4
2014-Jul-17 07:33N 54°41' E 012°34'1514.9
2014-Jul-17 06:33N 54°31' E 012°14'1312.9
2014-Jul-17 05:33N 54°25' E 011°55'1716.6
2014-Jul-17 04:33N 54°30' E 011°27'1716.8
2014-Jul-17 03:34N 54°38' E 011°02'1614.4
2014-Jul-17 02:25N 54°54' E 010°54'5913.9
2014-Jul-16 22:09N 55°53' E 010°53'5214.6
2014-Jul-16 18:33N 56°39' E 011°38'1414.2
2014-Jul-16 17:32N 56°52' E 011°48'1616.4
2014-Jul-16 16:34N 57°07' E 011°38'1616.2
2014-Jul-16 15:34N 57°22' E 011°26'1616.2
2014-Jul-16 14:34N 57°35' E 011°08'1615.8
2014-Jul-16 13:34N 57°45' E 010°45'1615.7
2014-Jul-16 12:33N 57°45' E 010°16'17317.0
2014-Jul-16 02:22N 55°41' E 006°36'4 4.5
2014-Jul-16 01:24N 55°37' E 006°32'9916.8
2014-Jul-15 19:33N 54°13' E 005°02'1716.9
2014-Jul-15 18:33N 54°00' E 004°44'2216.9
2014-Jul-15 17:14N 53°45' E 004°17'1416.6
2014-Jul-15 16:22N 53°36' E 003°58'1816.0
2014-Jul-15 15:14N 53°21' E 003°39'1516.4
2014-Jul-15 14:20N 53°08' E 003°30'1516.0
2014-Jul-15 13:23N 52°54' E 003°20'5714.9
2014-Jul-15 09:33N 52°02' E 002°41'1514.6
2014-Jul-15 08:33N 51°48' E 002°37'1615.9
2014-Jul-15 07:33N 51°36' E 002°20'1716.6
2014-Jul-15 06:33N 51°21' E 002°07'1616.1
2014-Jul-15 05:33N 51°09' E 001°51'1817.8
2014-Jul-15 04:33N 50°57' E 001°30'2217.3
2014-Jul-15 03:18N 50°38' E 001°12'1516.9
2014-Jul-15 02:24N 50°31' E 000°52'1417.0
2014-Jul-15 01:33N 50°26' E 000°30'2317.3
2014-Jul-15 00:12N 50°20' W 000°05'2118.8
2014-Jul-14 23:04N 50°18' W 000°39'1020.3
2014-Jul-14 22:33N 50°17' W 000°55'1919.3
2014-Jul-14 21:33N 50°23' W 001°24'2120.4
2014-Jul-14 20:33N 50°24' W 001°56'  
Track history (hours):
 
Tides and Currents Weather Stations Pressure Air Temp Water Temp Dewpoint Dewpoint Depression Visibility Wind Speed Wind Dir Waves Ship Positions

Sanko Independence

Last reported at 2014-Jul-23 18:33 UTC. Time now 2014-Jul-25 18:21 UTC.
Position N 49°55' W 003°37'.

Length 174 m; draft 10.5 m.

Type: Ship (hazmat cat C). MMSI: 636013946.

Date/timePositionNaut miles runAvg speedWind from/ knotsBaromVisibWave heightAir tempDewpointWater temp
2014-Jul-23 18:33N 49°55' W 003°37'9511.9
2014-Jul-23 10:31N 50°26' W 001°16'1715.9
2014-Jul-23 09:27N 50°27' W 000°50'1314.6
2014-Jul-23 08:33N 50°27' W 000°29'1413.9
2014-Jul-23 07:32N 50°30' W 000°07'1313.3
2014-Jul-23 06:32N 50°33' E 000°13'1313.2
2014-Jul-23 05:33N 50°37' E 000°33'1414.1
2014-Jul-23 04:33N 50°44' E 000°52'1815.3
2014-Jul-23 03:24N 50°54' E 001°15'1316.1
2014-Jul-23 02:33N 51°03' E 001°31'1515.2
2014-Jul-23 01:33N 51°15' E 001°47'1413.8
2014-Jul-23 00:33N 51°27' E 001°58'1313.2
2014-Jul-22 23:33N 51°37' E 002°10'1313.0
2014-Jul-22 22:31N 51°48' E 002°24'1212.7
2014-Jul-22 21:33N 51°58' E 002°34'1413.9
2014-Jul-22 20:33N 52°12' E 002°40'1514.9
2014-Jul-22 19:34N 52°25' E 002°50'1515.4
2014-Jul-22 18:34N 52°39' E 003°01'1615.6
2014-Jul-22 17:34N 52°53' E 003°13'1515.3
2014-Jul-22 16:34N 53°07' E 003°22'1514.7
2014-Jul-22 15:34N 53°21' E 003°30'1414.1
2014-Jul-22 14:33N 53°34' E 003°37'1313.2
2014-Jul-22 13:33N 53°46' E 003°48'1414.0
2014-Jul-22 12:33N 53°54' E 004°07'1413.6
2014-Jul-22 11:33N 54°06' E 004°20'1414.3
2014-Jul-22 10:33N 54°18' E 004°33'1414.4
2014-Jul-22 09:33N 54°30' E 004°47'25413.9
2014-Jul-21 15:16N 57°45' E 009°38'1014.1
2014-Jul-21 14:33N 57°50' E 009°55'1414.1
2014-Jul-21 13:33N 57°51' E 010°21'1413.6
2014-Jul-21 12:34N 57°48' E 010°46'1211.9
2014-Jul-21 11:33N 57°40' E 011°02'1413.9
2014-Jul-21 10:33N 57°30' E 011°21'1414.0
2014-Jul-21 09:33N 57°18' E 011°34'1514.5
2014-Jul-21 08:33N 57°04' E 011°42'1414.5
2014-Jul-21 07:33N 56°50' E 011°51'1312.9
2014-Jul-21 06:32N 56°37' E 011°46'1413.5
2014-Jul-21 05:32N 56°26' E 011°33'1413.5
2014-Jul-21 04:31N 56°14' E 011°21'1313.6
2014-Jul-21 03:34N 56°03' E 011°07'1414.3
2014-Jul-21 02:34N 55°52' E 010°52'1614.5
2014-Jul-21 01:29N 55°36' E 010°49'1415.0
2014-Jul-21 00:33N 55°24' E 011°01'1413.8
2014-Jul-20 23:33N 55°10' E 011°04'1413.8
2014-Jul-20 22:34N 54°57' E 010°55'1514.6
2014-Jul-20 21:34N 54°43' E 010°50'1413.5
2014-Jul-20 20:34N 54°36' E 011°10'1515.3
2014-Jul-20 19:34N 54°29' E 011°33'1514.8
2014-Jul-20 18:34N 54°26' E 011°58'1312.6
2014-Jul-20 17:34N 54°34' E 012°15'1414.2
2014-Jul-20 16:34N 54°43' E 012°34'1414.1
2014-Jul-20 15:34N 54°50' E 012°56'1414.2
2014-Jul-20 14:34N 54°54' E 013°19'1414.3
2014-Jul-20 13:34N 54°60' E 013°42'1414.2
2014-Jul-20 12:34N 55°04' E 014°05'1413.9
2014-Jul-20 11:33N 55°12' E 014°26'1413.8
2014-Jul-20 10:33N 55°20' E 014°45'1111.0
2014-Jul-20 09:33N 55°26' E 015°02'1414.3
2014-Jul-20 08:33N 55°35' E 015°22'1414.4
2014-Jul-20 07:33N 55°43' E 015°42'1414.5
2014-Jul-20 06:33N 55°52' E 016°03'1414.4
2014-Jul-20 05:33N 56°00' E 016°24'1414.4
2014-Jul-20 04:33N 56°09' E 016°45'1414.2
2014-Jul-20 03:33N 56°18' E 017°05'1414.0
2014-Jul-20 02:33N 56°26' E 017°25'1413.9
2014-Jul-20 01:33N 56°35' E 017°44'1414.1
2014-Jul-20 00:33N 56°43' E 018°05'1414.0
2014-Jul-19 23:33N 56°52' E 018°25'1414.2
2014-Jul-19 22:33N 56°57' E 018°50'1414.2
2014-Jul-19 21:33N 57°02' E 019°14'1414.1
2014-Jul-19 20:33N 57°07' E 019°38'1414.2
2014-Jul-19 19:33N 57°12' E 020°03'1914.3
2014-Jul-19 18:16N 57°18' E 020°35'1014.3
2014-Jul-19 17:33N 57°21' E 020°53'1414.3
2014-Jul-19 16:33N 57°26' E 021°18'8 7.8
2014-Jul-19 15:33N 57°24' E 021°32'0 0.0
2014-Jul-19 13:07N 57°24' E 021°32'0 0.0
2014-Jul-19 12:31N 57°24' E 021°32'0 0.0
2014-Jul-19 05:28N 57°24' E 021°32'0 0.0
2014-Jul-19 00:22N 57°24' E 021°32'0 0.0
2014-Jul-18 23:28N 57°24' E 021°32'5 0.3
2014-Jul-18 05:32N 57°26' E 021°24'7013.1
2014-Jul-18 00:11N 57°00' E 019°23'1016.6
2014-Jul-17 23:33N 56°57' E 019°06'1716.5
2014-Jul-17 22:32N 56°51' E 018°37'3316.6
2014-Jul-17 20:33N 56°30' E 017°50'2516.8
2014-Jul-17 19:03N 56°15' E 017°14'1516.6
2014-Jul-17 18:09N 56°06' E 016°53'1016.4
2014-Jul-17 17:34N 55°60' E 016°39'1716.5
2014-Jul-17 16:34N 55°52' E 016°13'1716.6
2014-Jul-17 15:33N 55°44' E 015°47'1716.6
2014-Jul-17 14:33N 55°36' E 015°21'1616.2
2014-Jul-17 13:33N 55°26' E 014°59'1413.6
2014-Jul-17 12:33N 55°17' E 014°41'1616.4
2014-Jul-17 11:33N 55°06' E 014°19'1616.5
2014-Jul-17 10:33N 54°58' E 013°54'1716.6
2014-Jul-17 09:33N 54°53' E 013°27'1716.6
2014-Jul-17 08:33N 54°46' E 013°00'1616.4
2014-Jul-17 07:33N 54°41' E 012°34'1514.9
2014-Jul-17 06:33N 54°31' E 012°14'1312.9
2014-Jul-17 05:33N 54°25' E 011°55'1716.6
2014-Jul-17 04:33N 54°30' E 011°27'1716.8
2014-Jul-17 03:34N 54°38' E 011°02'1614.4
2014-Jul-17 02:25N 54°54' E 010°54'5913.9
2014-Jul-16 22:09N 55°53' E 010°53'5214.6
2014-Jul-16 18:33N 56°39' E 011°38'1414.2
2014-Jul-16 17:32N 56°52' E 011°48'1616.4
2014-Jul-16 16:34N 57°07' E 011°38'1616.2
2014-Jul-16 15:34N 57°22' E 011°26'1616.2
2014-Jul-16 14:34N 57°35' E 011°08'1615.8
2014-Jul-16 13:34N 57°45' E 010°45'1615.7
2014-Jul-16 12:33N 57°45' E 010°16'17317.0
2014-Jul-16 02:22N 55°41' E 006°36'4 4.5
2014-Jul-16 01:24N 55°37' E 006°32'9916.8
2014-Jul-15 19:33N 54°13' E 005°02'1716.9
2014-Jul-15 18:33N 54°00' E 004°44'2216.9
2014-Jul-15 17:14N 53°45' E 004°17'1416.6
2014-Jul-15 16:22N 53°36' E 003°58'1816.0
2014-Jul-15 15:14N 53°21' E 003°39'1516.4
2014-Jul-15 14:20N 53°08' E 003°30'1516.0
2014-Jul-15 13:23N 52°54' E 003°20'5714.9
2014-Jul-15 09:33N 52°02' E 002°41'1514.6
2014-Jul-15 08:33N 51°48' E 002°37'1615.9
2014-Jul-15 07:33N 51°36' E 002°20'1716.6
2014-Jul-15 06:33N 51°21' E 002°07'1616.1
2014-Jul-15 05:33N 51°09' E 001°51'1817.8
2014-Jul-15 04:33N 50°57' E 001°30'2217.3
2014-Jul-15 03:18N 50°38' E 001°12'1516.9
2014-Jul-15 02:24N 50°31' E 000°52'1417.0
2014-Jul-15 01:33N 50°26' E 000°30'2317.3
2014-Jul-15 00:12N 50°20' W 000°05'2118.8
2014-Jul-14 23:04N 50°18' W 000°39'1020.3
2014-Jul-14 22:33N 50°17' W 000°55'1919.3
2014-Jul-14 21:33N 50°23' W 001°24'2120.4
2014-Jul-14 20:33N 50°24' W 001°56'  

Dump ship's entire track history